SBI5031 UNNT-UWWW
Flight info
| Callsign | SBI5031 |
|---|---|
| Flight time | N/A |
| Altitude | 36000 |
| Route | UNNT/25 OGAMA A308 OSNAB G825 DORON A487 OZGEL L158 LANTO T759 EKRIM T173 NALUS |
| Aircraft | A320/M-SDE2E3FGHIRWXY/LB1 |
Departure
| Time | N/A |
|---|---|
| Airport | Novosibirsk Tolmachevo Airport (UNNT) |
Arrival
| Time | 2026-05-01 09:26 |
|---|---|
| Airport | Kurumoch International Airport (UWWW) |
| Time | Latitude | Longitude | Altitude | Speed | Heading |
|---|---|---|---|---|---|
| 2026-05-01 08:54 | 54.23140 | 54.57201 | 35972 ft | 433 kts | 245° |
| 2026-05-01 08:54 | 54.20837 | 54.47674 | 35973 ft | 434 kts | 245° |
| 2026-05-01 08:55 | 54.18548 | 54.38224 | 35972 ft | 434 kts | 245° |
| 2026-05-01 08:55 | 54.16232 | 54.28712 | 35973 ft | 434 kts | 245° |
| 2026-05-01 08:56 | 54.13903 | 54.19212 | 35976 ft | 434 kts | 245° |
| 2026-05-01 08:56 | 54.11564 | 54.09735 | 35974 ft | 434 kts | 245° |
| 2026-05-01 08:57 | 54.09215 | 54.00267 | 35972 ft | 434 kts | 245° |
| 2026-05-01 08:57 | 54.06857 | 53.90798 | 35970 ft | 434 kts | 245° |
| 2026-05-01 08:58 | 54.05674 | 53.86062 | 35748 ft | 434 kts | 245° |
| 2026-05-01 08:58 | 54.04491 | 53.81335 | 35510 ft | 434 kts | 245° |
| 2026-05-01 08:58 | 54.03309 | 53.76610 | 35281 ft | 434 kts | 245° |
| 2026-05-01 08:58 | 54.02127 | 53.71886 | 35045 ft | 434 kts | 245° |
| 2026-05-01 08:59 | 54.00957 | 53.67232 | 34824 ft | 434 kts | 244° |
| 2026-05-01 08:59 | 53.99767 | 53.62523 | 34599 ft | 434 kts | 244° |
| 2026-05-01 08:59 | 53.98572 | 53.57796 | 34373 ft | 434 kts | 244° |
| 2026-05-01 08:59 | 53.97382 | 53.53074 | 34144 ft | 434 kts | 245° |
| 2026-05-01 09:00 | 53.96194 | 53.48363 | 33814 ft | 434 kts | 245° |
| 2026-05-01 09:00 | 53.95401 | 53.45233 | 33061 ft | 438 kts | 245° |
| 2026-05-01 09:00 | 53.93780 | 53.38869 | 31728 ft | 440 kts | 245° |
| 2026-05-01 09:00 | 53.92559 | 53.34087 | 30778 ft | 441 kts | 245° |
| 2026-05-01 09:01 | 53.91340 | 53.29312 | 29623 ft | 443 kts | 245° |
| 2026-05-01 09:01 | 53.90119 | 53.24529 | 28895 ft | 436 kts | 245° |
| 2026-05-01 09:01 | 53.88930 | 53.19876 | 28325 ft | 426 kts | 245° |
| 2026-05-01 09:01 | 53.87755 | 53.15293 | 27673 ft | 420 kts | 244° |
| 2026-05-01 09:02 | 53.86598 | 53.10797 | 27029 ft | 414 kts | 244° |
| 2026-05-01 09:02 | 53.85460 | 53.06400 | 26408 ft | 410 kts | 244° |
| 2026-05-01 09:02 | 53.84323 | 53.02009 | 25830 ft | 405 kts | 244° |
| 2026-05-01 09:02 | 53.83239 | 52.97641 | 25223 ft | 402 kts | 248° |
| 2026-05-01 09:03 | 53.82490 | 52.93081 | 24628 ft | 401 kts | 256° |
| 2026-05-01 09:03 | 53.82022 | 52.88444 | 24048 ft | 398 kts | 257° |
| 2026-05-01 09:03 | 53.81715 | 52.85391 | 23664 ft | 397 kts | 257° |
| 2026-05-01 09:03 | 53.81247 | 52.80795 | 23039 ft | 393 kts | 257° |
| 2026-05-01 09:04 | 53.80774 | 52.76265 | 22495 ft | 389 kts | 257° |
| 2026-05-01 09:04 | 53.80302 | 52.71795 | 21993 ft | 384 kts | 257° |
| 2026-05-01 09:04 | 53.79833 | 52.67366 | 21498 ft | 380 kts | 257° |
| 2026-05-01 09:05 | 53.78459 | 52.54287 | 20119 ft | 369 kts | 257° |
| 2026-05-01 09:05 | 53.78012 | 52.50044 | 19689 ft | 365 kts | 256° |
| 2026-05-01 09:05 | 53.77565 | 52.45839 | 19269 ft | 361 kts | 256° |
| 2026-05-01 09:06 | 53.77122 | 52.41681 | 18836 ft | 357 kts | 256° |
| 2026-05-01 09:06 | 53.76681 | 52.37556 | 18402 ft | 355 kts | 256° |
| 2026-05-01 09:06 | 53.76249 | 52.33522 | 17940 ft | 352 kts | 256° |
| 2026-05-01 09:06 | 53.75811 | 52.29457 | 17495 ft | 350 kts | 256° |
| 2026-05-01 09:07 | 53.75373 | 52.25418 | 17051 ft | 348 kts | 256° |
| 2026-05-01 09:07 | 53.74938 | 52.21396 | 16593 ft | 346 kts | 256° |
| 2026-05-01 09:07 | 53.74509 | 52.17404 | 16154 ft | 345 kts | 256° |
| 2026-05-01 09:07 | 53.74078 | 52.13427 | 15708 ft | 343 kts | 256° |
| 2026-05-01 09:08 | 53.73646 | 52.09469 | 15248 ft | 342 kts | 256° |
| 2026-05-01 09:08 | 53.73212 | 52.05535 | 14791 ft | 341 kts | 256° |
| 2026-05-01 09:08 | 53.72778 | 52.01603 | 14330 ft | 340 kts | 256° |
| 2026-05-01 09:08 | 53.72348 | 51.97678 | 13867 ft | 339 kts | 256° |
| 2026-05-01 09:09 | 53.71916 | 51.93760 | 13353 ft | 339 kts | 257° |
| 2026-05-01 09:09 | 53.71484 | 51.89863 | 12893 ft | 336 kts | 257° |
| 2026-05-01 09:09 | 53.71055 | 51.85995 | 12424 ft | 334 kts | 257° |
| 2026-05-01 09:09 | 53.70627 | 51.82144 | 11941 ft | 332 kts | 257° |
| 2026-05-01 09:10 | 53.70201 | 51.78332 | 11467 ft | 330 kts | 257° |
| 2026-05-01 09:10 | 53.69780 | 51.74580 | 10988 ft | 328 kts | 257° |
| 2026-05-01 09:10 | 53.69351 | 51.70771 | 10631 ft | 322 kts | 257° |
| 2026-05-01 09:10 | 53.68947 | 51.67170 | 10513 ft | 311 kts | 257° |
| 2026-05-01 09:11 | 53.68546 | 51.63648 | 10383 ft | 301 kts | 257° |
| 2026-05-01 09:11 | 53.68156 | 51.60238 | 10203 ft | 293 kts | 257° |
| 2026-05-01 09:11 | 53.67772 | 51.56897 | 9971 ft | 288 kts | 257° |
| 2026-05-01 09:11 | 53.67392 | 51.53596 | 9817 ft | 287 kts | 256° |
| 2026-05-01 09:12 | 53.66885 | 51.50365 | 9669 ft | 284 kts | 248° |
| 2026-05-01 09:12 | 53.66134 | 51.47293 | 9544 ft | 283 kts | 244° |
| 2026-05-01 09:12 | 53.65353 | 51.44243 | 9407 ft | 282 kts | 244° |
| 2026-05-01 09:12 | 53.64579 | 51.41209 | 9270 ft | 282 kts | 244° |
| 2026-05-01 09:13 | 53.63807 | 51.38175 | 9133 ft | 282 kts | 244° |
| 2026-05-01 09:13 | 53.63036 | 51.35144 | 9000 ft | 281 kts | 244° |
| 2026-05-01 09:13 | 53.62266 | 51.32118 | 8858 ft | 281 kts | 244° |
| 2026-05-01 09:13 | 53.61497 | 51.29095 | 8724 ft | 281 kts | 245° |
| 2026-05-01 09:14 | 53.60731 | 51.26086 | 8591 ft | 280 kts | 244° |
| 2026-05-01 09:14 | 53.59958 | 51.23063 | 8456 ft | 280 kts | 244° |
| 2026-05-01 09:14 | 53.59186 | 51.20058 | 8327 ft | 279 kts | 244° |
| 2026-05-01 09:14 | 53.58413 | 51.17056 | 8187 ft | 279 kts | 244° |
| 2026-05-01 09:15 | 53.57649 | 51.14102 | 8058 ft | 279 kts | 244° |
| 2026-05-01 09:15 | 53.56878 | 51.11119 | 7926 ft | 278 kts | 244° |
| 2026-05-01 09:15 | 53.56107 | 51.08132 | 7786 ft | 278 kts | 245° |
| 2026-05-01 09:15 | 53.55342 | 51.05153 | 7665 ft | 277 kts | 245° |
| 2026-05-01 09:16 | 53.54576 | 51.02170 | 7531 ft | 277 kts | 245° |
| 2026-05-01 09:16 | 53.53808 | 50.99193 | 7400 ft | 277 kts | 245° |
| 2026-05-01 09:16 | 53.53041 | 50.96228 | 7267 ft | 276 kts | 245° |
| 2026-05-01 09:17 | 53.51505 | 50.90306 | 7005 ft | 276 kts | 245° |
| 2026-05-01 09:17 | 53.50736 | 50.87343 | 6886 ft | 276 kts | 245° |
| 2026-05-01 09:17 | 53.49200 | 50.81440 | 6632 ft | 276 kts | 244° |
| 2026-05-01 09:18 | 53.48430 | 50.78484 | 6506 ft | 276 kts | 245° |
| 2026-05-01 09:18 | 53.46903 | 50.72637 | 6246 ft | 275 kts | 245° |
| 2026-05-01 09:19 | 53.45363 | 50.66762 | 5971 ft | 274 kts | 245° |
| 2026-05-01 09:19 | 53.44596 | 50.63833 | 5855 ft | 274 kts | 245° |
| 2026-05-01 09:19 | 53.43830 | 50.60904 | 5694 ft | 274 kts | 245° |
| 2026-05-01 09:20 | 53.42299 | 50.55074 | 5198 ft | 270 kts | 245° |
| 2026-05-01 09:20 | 53.40808 | 50.49450 | 4701 ft | 258 kts | 246° |
| 2026-05-01 09:21 | 53.39423 | 50.44101 | 4218 ft | 246 kts | 249° |
| 2026-05-01 09:21 | 53.38836 | 50.41439 | 3975 ft | 242 kts | 251° |
| 2026-05-01 09:21 | 53.37742 | 50.36140 | 3504 ft | 238 kts | 251° |
| 2026-05-01 09:22 | 53.36675 | 50.30985 | 3038 ft | 230 kts | 251° |
| 2026-05-01 09:22 | 53.36903 | 50.26203 | 2637 ft | 202 kts | 316° |
| 2026-05-01 09:23 | 53.38059 | 50.25064 | 2431 ft | 190 kts | 345° |
| 2026-05-01 09:23 | 53.40374 | 50.23709 | 2100 ft | 166 kts | 343° |
| 2026-05-01 09:24 | 53.42446 | 50.22465 | 1762 ft | 154 kts | 344° |
| 2026-05-01 09:24 | 53.43444 | 50.21870 | 1562 ft | 150 kts | 343° |
| 2026-05-01 09:24 | 53.45282 | 50.20773 | 1197 ft | 134 kts | 344° |
| 2026-05-01 09:25 | 53.47025 | 50.19723 | 905 ft | 131 kts | 344° |
| 2026-05-01 09:25 | 53.48744 | 50.18702 | 572 ft | 131 kts | 343° |
| 2026-05-01 09:26 | 53.49595 | 50.18194 | 459 ft | 124 kts | 344° |
| 2026-05-01 09:26 | 53.50669 | 50.17557 | 441 ft | 37 kts | 340° |
| 2026-05-01 09:26 | 53.50878 | 50.17429 | 440 ft | 24 kts | 339° |
| 2026-05-01 09:27 | 53.51162 | 50.17263 | 434 ft | 19 kts | 341° |
| 2026-05-01 09:27 | 53.51280 | 50.17191 | 449 ft | 17 kts | 340° |
| 2026-05-01 09:27 | 53.51373 | 50.17136 | 450 ft | 12 kts | 340° |
| 2026-05-01 09:28 | 53.51430 | 50.17096 | 449 ft | 12 kts | 324° |
| 2026-05-01 09:28 | 53.51442 | 50.17051 | 449 ft | 12 kts | 272° |
| 2026-05-01 09:28 | 53.51406 | 50.16924 | 447 ft | 12 kts | 240° |
| 2026-05-01 09:28 | 53.51365 | 50.16799 | 447 ft | 12 kts | 241° |
| 2026-05-01 09:29 | 53.51295 | 50.16581 | 447 ft | 10 kts | 242° |
| 2026-05-01 09:29 | 53.51266 | 50.16489 | 447 ft | 12 kts | 242° |
| 2026-05-01 09:30 | 53.51179 | 50.16220 | 447 ft | 10 kts | 242° |
| 2026-05-01 09:30 | 53.51147 | 50.16126 | 447 ft | 9 kts | 240° |
| 2026-05-01 09:30 | 53.51099 | 50.15974 | 447 ft | 6 kts | 245° |
| 2026-05-01 09:31 | 53.51109 | 50.15921 | 447 ft | 4 kts | 323° |
| 2026-05-01 09:31 | 53.51130 | 50.15899 | 447 ft | 3 kts | 332° |
| 2026-05-01 09:31 | 53.51153 | 50.15879 | 447 ft | 1 kts | 332° |
| 2026-05-01 09:32 | 53.51156 | 50.15876 | 447 ft | 0 kts | 332° |